createdAt,value
2022-08-23T00:02:01.079Z,100.00
2022-08-23T00:04:34.843Z,100.00
2022-08-23T00:07:03.495Z,100.00
2022-08-23T00:09:31.154Z,100.00
2022-08-23T00:12:10.947Z,100.00
2022-08-23T00:14:41.019Z,100.00
2022-08-23T00:17:12.127Z,100.00
2022-08-23T00:20:01.454Z,100.00
2022-08-23T00:22:29.107Z,100.00
2022-08-23T00:24:56.688Z,100.00
2022-08-23T00:27:24.317Z,100.00
2022-08-23T00:29:53.977Z,100.00
2022-08-23T00:32:24.141Z,100.00
2022-08-23T00:34:52.036Z,100.00
2022-08-23T00:37:22.259Z,100.00
2022-08-23T00:39:50.432Z,100.00
2022-08-23T00:42:47.656Z,100.00
2022-08-23T00:45:35.446Z,100.00
2022-08-23T00:48:04.084Z,100.00
2022-08-23T00:50:36.810Z,100.00
2022-08-23T00:53:12.624Z,100.00
2022-08-23T00:55:42.839Z,100.00
2022-08-23T00:58:10.812Z,100.00
2022-08-23T01:00:38.435Z,100.00
2022-08-23T01:03:09.112Z,100.00
2022-08-23T01:05:46.175Z,100.00
2022-08-23T01:08:15.243Z,100.00
2022-08-23T01:10:46.263Z,100.00
2022-08-23T01:13:16.072Z,100.00
2022-08-23T01:15:47.136Z,100.00
2022-08-23T01:18:17.859Z,100.00
2022-08-23T01:20:50.246Z,100.00
2022-08-23T01:23:30.284Z,100.00
2022-08-23T01:25:58.359Z,100.00
2022-08-23T01:28:26.152Z,100.00
2022-08-23T01:30:53.828Z,100.00
2022-08-23T01:33:21.475Z,100.00
2022-08-23T01:35:51.375Z,100.00
2022-08-23T01:38:19.009Z,100.00
2022-08-23T01:40:48.048Z,100.00
2022-08-23T01:43:18.043Z,100.00
2022-08-23T01:45:45.702Z,100.00
2022-08-23T01:48:13.651Z,100.00
2022-08-23T01:50:41.364Z,100.00
2022-08-23T01:53:09.553Z,100.00
2022-08-23T01:55:37.695Z,100.00
2022-08-23T01:58:08.000Z,100.00
2022-08-23T02:00:38.179Z,100.00
2022-08-23T02:03:06.642Z,100.00
2022-08-23T02:05:34.854Z,100.00
2022-08-23T02:08:23.005Z,100.00
2022-08-23T02:10:50.874Z,100.00
2022-08-23T02:13:20.084Z,100.00
2022-08-23T02:15:51.110Z,100.00
2022-08-23T02:18:19.512Z,100.00
2022-08-23T02:20:47.623Z,100.00
2022-08-23T02:23:15.215Z,100.00
2022-08-23T02:25:43.717Z,100.00
2022-08-23T02:28:11.644Z,100.00
2022-08-23T02:30:41.012Z,100.00
2022-08-23T02:33:09.587Z,100.00
2022-08-23T02:35:38.388Z,100.00
2022-08-23T02:38:06.735Z,100.00
2022-08-23T02:40:35.227Z,100.00
2022-08-23T02:43:03.436Z,100.00
2022-08-23T02:45:31.080Z,100.00
2022-08-23T02:48:00.159Z,100.00
2022-08-23T02:50:28.163Z,100.00
2022-08-23T02:52:56.630Z,100.00
2022-08-23T02:55:25.253Z,100.00
2022-08-23T02:57:53.006Z,100.00
2022-08-23T03:00:22.074Z,100.00
2022-08-23T03:02:49.688Z,100.00
2022-08-23T03:05:18.704Z,100.00
2022-08-23T03:07:46.407Z,100.00
2022-08-23T03:10:14.906Z,100.00
2022-08-23T03:12:42.500Z,100.00
2022-08-23T03:15:11.574Z,100.00
2022-08-23T03:17:39.911Z,100.00
2022-08-23T03:20:09.002Z,100.00
2022-08-23T03:22:38.420Z,100.00
2022-08-23T03:25:07.235Z,100.00
2022-08-23T03:27:38.341Z,100.00
2022-08-23T03:30:17.755Z,100.00
2022-08-23T03:32:49.031Z,100.00
2022-08-23T03:35:17.249Z,100.00
2022-08-23T03:37:46.589Z,100.00
2022-08-23T03:40:14.242Z,100.00
2022-08-23T03:42:41.889Z,100.00
2022-08-23T03:45:10.086Z,100.00
2022-08-23T03:47:37.708Z,100.00
2022-08-23T03:50:05.956Z,100.00
2022-08-23T03:52:33.547Z,100.00
2022-08-23T03:55:02.509Z,100.00
2022-08-23T03:57:30.156Z,100.00
2022-08-23T03:59:59.822Z,100.00
2022-08-23T04:02:27.633Z,100.00
2022-08-23T04:04:55.214Z,100.00
2022-08-23T04:07:22.899Z,100.00
2022-08-23T04:09:54.868Z,100.00
2022-08-23T04:12:24.222Z,100.00
2022-08-23T04:14:52.366Z,100.00
2022-08-23T04:17:21.024Z,100.00
2022-08-23T04:19:49.306Z,100.00
2022-08-23T04:22:19.738Z,100.00
2022-08-23T04:24:47.850Z,100.00
2022-08-23T04:27:15.611Z,100.00
2022-08-23T04:29:44.692Z,100.00
2022-08-23T04:32:12.679Z,100.00
2022-08-23T04:34:42.378Z,100.00
2022-08-23T04:37:13.682Z,100.00
2022-08-23T04:39:55.778Z,100.00
2022-08-23T04:42:24.090Z,100.00
2022-08-23T04:44:53.509Z,100.00
2022-08-23T04:47:21.374Z,100.00
2022-08-23T04:49:48.963Z,100.00
2022-08-23T04:52:19.431Z,100.00
2022-08-23T04:54:47.748Z,100.00
2022-08-23T04:57:16.596Z,100.00
2022-08-23T04:59:44.279Z,100.00
2022-08-23T05:02:13.377Z,100.00
2022-08-23T05:04:41.313Z,100.00
2022-08-23T05:07:08.886Z,100.00
2022-08-23T05:09:36.552Z,100.00
2022-08-23T05:12:04.739Z,100.00
2022-08-23T05:14:32.725Z,100.00
2022-08-23T05:17:00.306Z,100.00
2022-08-23T05:19:29.335Z,100.00
2022-08-23T05:21:57.330Z,100.00
2022-08-23T05:24:24.995Z,100.00
2022-08-23T05:26:52.573Z,100.00
2022-08-23T05:29:21.402Z,100.00
2022-08-23T05:31:49.887Z,100.00
2022-08-23T05:34:17.790Z,100.00
2022-08-23T05:36:56.248Z,100.00
2022-08-23T05:39:36.007Z,100.00
2022-08-23T05:42:05.014Z,100.00
2022-08-23T05:44:36.279Z,100.00
2022-08-23T05:47:04.975Z,100.00
2022-08-23T05:49:38.630Z,100.00
2022-08-23T05:52:09.303Z,100.00
2022-08-23T05:54:37.095Z,100.00
2022-08-23T05:57:05.240Z,100.00
2022-08-23T05:59:32.931Z,100.00
2022-08-23T06:02:00.510Z,100.00
2022-08-23T06:04:28.234Z,100.00
2022-08-23T06:06:58.690Z,100.00
2022-08-23T06:09:27.951Z,100.00
2022-08-23T06:11:55.551Z,100.00
2022-08-23T06:14:23.641Z,100.00
2022-08-23T06:16:55.860Z,100.00
2022-08-23T06:19:24.286Z,100.00
2022-08-23T06:21:53.017Z,100.00
2022-08-23T06:24:20.960Z,100.00
2022-08-23T06:26:49.973Z,96.26
2022-08-23T06:29:19.955Z,74.28
2022-08-23T06:31:49.940Z,65.43
2022-08-23T06:34:20.728Z,60.95
2022-08-23T06:36:50.140Z,61.23
2022-08-23T06:39:19.020Z,58.39
2022-08-23T06:41:48.557Z,54.43
2022-08-23T06:44:18.358Z,56.10
2022-08-23T06:46:46.756Z,66.48
2022-08-23T06:49:14.546Z,70.65
2022-08-23T06:51:43.795Z,79.10
2022-08-23T06:54:13.977Z,87.63
2022-08-23T06:56:42.886Z,90.31
2022-08-23T06:59:12.077Z,88.39
2022-08-23T07:01:45.503Z,92.83
2022-08-23T07:04:15.755Z,91.97
2022-08-23T07:06:43.626Z,96.74
2022-08-23T07:09:11.360Z,96.77
2022-08-23T07:11:39.358Z,97.13
2022-08-23T07:14:08.842Z,98.84
2022-08-23T07:16:38.915Z,99.07
2022-08-23T07:19:09.076Z,97.26
2022-08-23T07:21:36.825Z,96.64
2022-08-23T07:24:05.154Z,92.15
2022-08-23T07:26:32.910Z,93.06
2022-08-23T07:29:02.291Z,91.20
2022-08-23T07:31:32.818Z,87.64
2022-08-23T07:34:02.137Z,86.80
2022-08-23T07:36:32.469Z,84.09
2022-08-23T07:39:00.894Z,86.33
2022-08-23T07:41:32.777Z,83.75
2022-08-23T07:44:02.746Z,81.72
2022-08-23T07:46:31.325Z,77.33
2022-08-23T07:48:59.676Z,77.05
2022-08-23T07:51:28.428Z,76.10
2022-08-23T07:53:57.799Z,73.44
2022-08-23T07:56:25.666Z,74.79
2022-08-23T07:58:53.434Z,73.04
2022-08-23T08:01:23.525Z,74.43
2022-08-23T08:03:53.984Z,72.67
2022-08-23T08:06:23.364Z,74.79
2022-08-23T08:08:51.427Z,75.05
2022-08-23T08:11:22.482Z,72.79
2022-08-23T08:13:51.616Z,74.69
2022-08-23T08:16:24.132Z,72.32
2022-08-23T08:18:52.408Z,73.70
2022-08-23T08:21:20.457Z,75.91
2022-08-23T08:23:48.058Z,72.10
2022-08-23T08:26:16.028Z,69.72
2022-08-23T08:28:46.195Z,70.71
2022-08-23T08:33:42.507Z,74.04
2022-08-23T08:36:10.474Z,71.48
2022-08-23T08:38:48.008Z,71.37
2022-08-23T08:41:21.121Z,71.62
2022-08-23T08:43:56.884Z,69.70
2022-08-23T08:46:28.403Z,69.35
2022-08-23T08:48:59.981Z,64.83
2022-08-23T08:51:39.120Z,65.67
2022-08-23T08:54:09.860Z,66.08
2022-08-23T08:56:39.547Z,64.56
2022-08-23T08:59:12.552Z,66.57
2022-08-23T09:01:40.509Z,65.07
2022-08-23T09:04:08.849Z,69.82
2022-08-23T09:06:44.848Z,67.49
2022-08-23T09:09:19.888Z,61.09
2022-08-23T09:11:54.941Z,59.69
2022-08-23T09:14:38.923Z,57.55
2022-08-23T09:17:12.739Z,55.14
2022-08-23T09:19:40.788Z,54.56
2022-08-23T09:22:13.318Z,52.85
2022-08-23T09:24:41.507Z,52.10
2022-08-23T09:27:09.652Z,52.43
2022-08-23T09:29:42.444Z,51.82
2022-08-23T09:32:28.308Z,48.36
2022-08-23T09:35:07.393Z,47.17
2022-08-23T09:37:55.127Z,50.24
2022-08-23T09:40:32.136Z,51.92
2022-08-23T09:43:07.032Z,54.71
2022-08-23T09:45:38.587Z,51.23
2022-08-23T09:48:07.402Z,51.14
2022-08-23T09:50:38.947Z,52.11
2022-08-23T09:53:09.494Z,52.38
2022-08-23T09:55:38.818Z,52.26
2022-08-23T09:58:08.795Z,49.32
2022-08-23T10:00:38.532Z,47.16
2022-08-23T10:03:26.515Z,44.80
2022-08-23T10:05:55.875Z,44.11
2022-08-23T10:08:25.652Z,47.94
2022-08-23T10:10:54.890Z,49.75
2022-08-23T10:13:23.111Z,50.54
2022-08-23T10:16:00.908Z,49.06
2022-08-23T10:18:39.142Z,45.09
2022-08-23T10:21:20.937Z,47.71
2022-08-23T10:23:58.715Z,49.37
2022-08-23T10:26:29.019Z,46.59
2022-08-23T10:29:17.606Z,44.09
2022-08-23T10:31:51.778Z,41.22
2022-08-23T10:34:32.388Z,39.77
2022-08-23T10:37:08.840Z,42.35
2022-08-23T10:39:45.152Z,41.63
2022-08-23T10:42:20.208Z,44.48
2022-08-23T10:44:51.904Z,42.50
2022-08-23T10:47:31.199Z,40.70
2022-08-23T10:50:01.694Z,43.31
2022-08-23T10:52:32.209Z,42.44
2022-08-23T10:55:06.365Z,41.17
2022-08-23T10:57:36.259Z,41.09
2022-08-23T11:00:07.132Z,40.53
2022-08-23T11:02:42.551Z,41.39
2022-08-23T11:05:23.866Z,39.88
2022-08-23T11:08:01.139Z,39.65
2022-08-23T11:10:34.843Z,40.10
2022-08-23T11:13:06.117Z,39.45
2022-08-23T11:15:44.514Z,38.57
2022-08-23T11:18:38.197Z,39.34
2022-08-23T11:21:09.914Z,37.10
2022-08-23T11:23:41.378Z,37.53
2022-08-23T11:26:11.332Z,37.88
2022-08-23T11:28:41.258Z,36.66
2022-08-23T11:31:27.385Z,36.15
2022-08-23T11:34:01.710Z,35.40
2022-08-23T11:36:31.032Z,37.25
2022-08-23T11:39:05.654Z,36.87
2022-08-23T11:41:34.206Z,36.25
2022-08-23T11:44:23.977Z,35.98
2022-08-23T11:47:03.270Z,34.92
2022-08-23T11:50:07.714Z,35.50
2022-08-23T11:52:54.569Z,35.24
2022-08-23T11:55:28.194Z,35.57
2022-08-23T11:58:14.039Z,35.05
2022-08-23T12:01:07.536Z,36.28
2022-08-23T12:03:55.988Z,36.46
2022-08-23T12:06:40.510Z,35.96
2022-08-23T12:09:15.185Z,35.25
2022-08-23T12:12:14.731Z,35.02
2022-08-23T12:14:54.903Z,33.78
2022-08-23T12:17:58.212Z,33.81
2022-08-23T12:20:31.586Z,35.87
2022-08-23T12:23:07.811Z,33.57
2022-08-23T12:25:37.393Z,34.59
2022-08-23T12:28:13.268Z,33.82
2022-08-23T12:30:51.330Z,34.05
2022-08-23T12:33:27.234Z,33.34
2022-08-23T12:36:00.951Z,34.69
2022-08-23T12:38:36.104Z,33.59
2022-08-23T12:41:18.156Z,35.49
2022-08-23T12:43:57.002Z,35.17
2022-08-23T12:46:40.425Z,35.11
2022-08-23T12:49:13.174Z,34.35
2022-08-23T12:51:49.839Z,34.69
2022-08-23T12:54:19.788Z,34.13
2022-08-23T12:56:50.371Z,33.66
2022-08-23T12:59:35.131Z,32.86
2022-08-23T13:02:05.088Z,31.13
2022-08-23T13:04:33.615Z,30.72
2022-08-23T13:07:05.920Z,30.89
2022-08-23T13:09:35.383Z,31.67
2022-08-23T13:12:06.271Z,30.65
2022-08-23T13:14:37.135Z,30.38
2022-08-23T13:17:18.668Z,31.29
2022-08-23T13:19:47.256Z,30.82
2022-08-23T13:22:22.101Z,31.84
2022-08-23T13:25:25.017Z,30.94
2022-08-23T13:27:54.753Z,32.35
2022-08-23T13:30:24.591Z,31.88
2022-08-23T13:32:53.993Z,33.00
2022-08-23T13:35:34.175Z,30.86
2022-08-23T13:38:09.929Z,31.43
2022-08-23T13:40:42.937Z,32.16
2022-08-23T13:43:15.996Z,31.39
2022-08-23T13:45:47.816Z,30.53
2022-08-23T13:48:20.619Z,30.79
2022-08-23T13:50:48.531Z,30.81
2022-08-23T13:53:16.174Z,31.31
2022-08-23T13:55:47.343Z,30.18
2022-08-23T13:58:24.921Z,31.77
2022-08-23T14:00:55.771Z,32.25
2022-08-23T14:03:24.236Z,30.34
2022-08-23T14:05:52.756Z,29.18
2022-08-23T14:08:20.531Z,31.11
2022-08-23T14:10:48.523Z,32.01
2022-08-23T14:13:18.423Z,33.69
2022-08-23T14:18:34.925Z,32.61
2022-08-23T14:21:04.199Z,32.91
2022-08-23T14:23:31.823Z,33.25
2022-08-23T14:25:59.769Z,32.87
2022-08-23T14:28:31.211Z,32.60
2022-08-23T14:30:58.984Z,31.89
2022-08-23T14:33:26.632Z,32.40
2022-08-23T14:35:54.321Z,31.94
2022-08-23T14:38:22.035Z,32.10
2022-08-23T14:40:53.640Z,32.49
2022-08-23T14:43:22.214Z,31.66
2022-08-23T14:45:54.828Z,30.93
2022-08-23T14:48:23.168Z,32.09
2022-08-23T14:50:50.942Z,32.41
2022-08-23T14:53:33.404Z,32.38
2022-08-23T14:56:20.538Z,33.80
2022-08-23T14:58:48.883Z,33.48
2022-08-23T15:01:19.481Z,33.01
2022-08-23T15:03:48.147Z,33.11
2022-08-23T15:06:17.351Z,33.17
2022-08-23T15:08:45.582Z,33.71
2022-08-23T15:14:03.421Z,35.09
2022-08-23T15:16:33.495Z,34.75
2022-08-23T15:19:01.330Z,34.73
2022-08-23T15:21:29.043Z,33.81
2022-08-23T15:23:56.631Z,34.21
2022-08-23T15:26:27.680Z,33.52
2022-08-23T15:28:55.310Z,34.93
2022-08-23T15:31:23.996Z,34.81
2022-08-23T15:33:53.005Z,35.25
2022-08-23T15:36:20.754Z,34.68
2022-08-23T15:38:49.697Z,35.19
2022-08-23T15:41:18.510Z,35.10
2022-08-23T15:43:46.154Z,35.16
2022-08-23T15:46:18.227Z,36.07
2022-08-23T15:48:49.467Z,35.52
2022-08-23T15:51:19.186Z,35.95
2022-08-23T15:53:47.268Z,35.41
2022-08-23T15:56:18.136Z,36.17
2022-08-23T15:58:45.820Z,36.00
2022-08-23T16:01:13.488Z,36.18
2022-08-23T16:03:43.700Z,36.56
2022-08-23T16:06:13.260Z,36.01
2022-08-23T16:08:43.902Z,35.30
2022-08-23T16:11:12.744Z,36.94
2022-08-23T16:13:45.468Z,38.00
2022-08-23T16:16:17.834Z,37.36
2022-08-23T16:18:45.603Z,36.87
2022-08-23T16:21:13.696Z,38.17
2022-08-23T16:23:43.061Z,37.17
2022-08-23T16:26:12.002Z,37.35
2022-08-23T16:28:44.289Z,36.58
2022-08-23T16:31:12.106Z,36.46
2022-08-23T16:33:40.443Z,36.81
2022-08-23T16:36:09.154Z,36.68
2022-08-23T16:38:37.614Z,36.24
2022-08-23T16:41:06.996Z,36.48
2022-08-23T16:43:34.583Z,37.26
2022-08-23T16:46:02.255Z,36.22
2022-08-23T16:48:30.561Z,36.05
2022-08-23T16:50:58.224Z,34.82
2022-08-23T16:53:26.839Z,36.05
2022-08-23T16:55:55.623Z,34.34
2022-08-23T16:58:25.949Z,32.29
2022-08-23T17:00:53.665Z,33.94
2022-08-23T17:03:21.487Z,33.82
2022-08-23T17:05:49.394Z,35.77
2022-08-23T17:08:17.016Z,34.21
2022-08-23T17:10:45.363Z,36.25
2022-08-23T17:13:13.702Z,37.86
2022-08-23T17:15:42.704Z,38.12
2022-08-23T17:18:10.292Z,40.15
2022-08-23T17:20:39.466Z,41.13
2022-08-23T17:23:07.521Z,40.98
2022-08-23T17:25:35.950Z,41.12
2022-08-23T17:28:03.991Z,41.23
2022-08-23T17:30:32.402Z,44.83
2022-08-23T17:33:01.498Z,43.75
2022-08-23T17:35:33.724Z,44.09
2022-08-23T17:38:02.533Z,46.47
2022-08-23T17:40:32.292Z,47.01
2022-08-23T17:43:00.816Z,48.21
2022-08-23T17:45:29.008Z,49.60
2022-08-23T17:47:56.667Z,49.77
2022-08-23T17:50:25.889Z,50.70
2022-08-23T17:52:53.488Z,50.68
2022-08-23T17:55:21.746Z,53.76
2022-08-23T17:57:50.228Z,54.80
2022-08-23T18:00:19.961Z,57.00
2022-08-23T18:02:47.532Z,59.12
2022-08-23T18:05:15.708Z,60.30
2022-08-23T18:07:45.034Z,61.19
2022-08-23T18:10:14.164Z,61.87
2022-08-23T18:12:42.809Z,65.74
2022-08-23T18:15:11.654Z,64.13
2022-08-23T18:17:40.289Z,61.38
2022-08-23T18:20:10.540Z,64.18
2022-08-23T18:22:38.611Z,64.29
2022-08-23T18:25:11.218Z,66.65
2022-08-23T18:27:56.333Z,66.81
2022-08-23T18:30:24.264Z,68.16
2022-08-23T18:32:52.023Z,70.15
2022-08-23T18:35:19.717Z,71.94
2022-08-23T18:37:47.341Z,73.40
2022-08-23T18:40:16.336Z,71.56
2022-08-23T18:42:44.955Z,72.51
2022-08-23T18:45:13.802Z,75.26
2022-08-23T18:47:41.869Z,77.42
2022-08-23T18:50:12.750Z,79.00
2022-08-23T18:52:40.352Z,79.49
2022-08-23T18:55:08.967Z,81.45
2022-08-23T18:57:38.908Z,83.47
2022-08-23T19:00:10.134Z,85.52
2022-08-23T19:02:37.708Z,87.41
2022-08-23T19:05:05.894Z,88.77
2022-08-23T19:07:33.471Z,88.91
2022-08-23T19:10:01.329Z,88.35
2022-08-23T19:12:29.347Z,89.24
2022-08-23T19:14:58.289Z,90.83
2022-08-23T19:17:26.527Z,92.07
2022-08-23T19:19:54.319Z,92.14
2022-08-23T19:22:21.922Z,93.04
2022-08-23T19:24:49.530Z,93.89
2022-08-23T19:27:17.093Z,93.42
2022-08-23T19:29:44.727Z,93.66
2022-08-23T19:32:13.916Z,95.01
2022-08-23T19:34:42.069Z,94.80
2022-08-23T19:37:10.866Z,95.03
2022-08-23T19:39:48.402Z,89.18
2022-08-23T19:42:16.059Z,93.21
2022-08-23T19:44:43.684Z,95.08
2022-08-23T19:47:13.368Z,96.52
2022-08-23T19:49:48.373Z,98.43
2022-08-23T19:52:15.987Z,99.67
2022-08-23T19:54:43.598Z,100.00
2022-08-23T19:57:12.000Z,100.00
2022-08-23T19:59:40.291Z,100.00
2022-08-23T20:02:09.675Z,100.00
2022-08-23T20:04:39.284Z,100.00
2022-08-23T20:07:07.026Z,100.00
2022-08-23T20:09:35.195Z,100.00
2022-08-23T20:12:03.149Z,100.00
2022-08-23T20:14:32.955Z,100.00
2022-08-23T20:17:03.269Z,100.00
2022-08-23T20:19:31.271Z,100.00
2022-08-23T20:22:20.214Z,100.00
2022-08-23T20:24:52.075Z,100.00
2022-08-23T20:27:24.490Z,100.00
2022-08-23T20:29:58.862Z,100.00
2022-08-23T20:32:26.673Z,100.00
2022-08-23T20:34:54.286Z,100.00
2022-08-23T20:37:23.848Z,100.00
2022-08-23T20:39:52.297Z,100.00
2022-08-23T20:42:20.375Z,100.00
2022-08-23T20:44:48.041Z,100.00
2022-08-23T20:47:15.767Z,100.00
2022-08-23T20:49:43.423Z,100.00
2022-08-23T20:52:11.902Z,100.00
2022-08-23T20:54:40.868Z,100.00
2022-08-23T20:57:08.466Z,100.00
2022-08-23T20:59:38.891Z,100.00
2022-08-23T21:02:08.643Z,100.00
2022-08-23T21:04:36.258Z,100.00
2022-08-23T21:07:08.165Z,100.00
2022-08-23T21:09:35.990Z,100.00
2022-08-23T21:12:05.985Z,100.00
2022-08-23T21:14:33.777Z,100.00
2022-08-23T21:17:01.395Z,100.00
2022-08-23T21:19:29.903Z,100.00
2022-08-23T21:21:58.255Z,100.00
2022-08-23T21:24:27.197Z,100.00
2022-08-23T21:26:54.788Z,100.00
2022-08-23T21:29:23.731Z,100.00
2022-08-23T21:31:51.371Z,100.00
2022-08-23T21:34:19.495Z,100.00
2022-08-23T21:36:47.086Z,100.00
2022-08-23T21:39:14.686Z,100.00
2022-08-23T21:41:44.238Z,100.00
2022-08-23T21:44:13.987Z,100.00
2022-08-23T21:46:43.329Z,100.00
2022-08-23T21:49:12.149Z,100.00
2022-08-23T21:51:40.662Z,100.00
2022-08-23T21:54:09.727Z,100.00
2022-08-23T21:56:37.486Z,100.00
2022-08-23T21:59:07.453Z,100.00
2022-08-23T22:01:36.242Z,100.00
2022-08-23T22:04:07.389Z,100.00
2022-08-23T22:06:36.283Z,100.00
2022-08-23T22:09:05.080Z,100.00
2022-08-23T22:11:32.663Z,100.00
2022-08-23T22:14:00.264Z,100.00
2022-08-23T22:16:28.323Z,100.00
2022-08-23T22:18:55.899Z,100.00
2022-08-23T22:21:24.826Z,100.00
2022-08-23T22:23:52.492Z,100.00
2022-08-23T22:26:20.300Z,100.00
2022-08-23T22:28:47.900Z,100.00
2022-08-23T22:31:15.942Z,100.00
2022-08-23T22:33:45.036Z,100.00
2022-08-23T22:36:16.403Z,100.00
2022-08-23T22:38:46.606Z,100.00
2022-08-23T22:41:16.866Z,100.00
2022-08-23T22:43:44.464Z,100.00
2022-08-23T22:46:12.878Z,100.00
2022-08-23T22:48:40.944Z,100.00
2022-08-23T22:51:11.318Z,100.00
2022-08-23T22:53:41.899Z,100.00
2022-08-23T22:56:12.186Z,100.00
2022-08-23T22:58:40.314Z,100.00
2022-08-23T23:01:13.440Z,100.00
2022-08-23T23:03:42.067Z,100.00
2022-08-23T23:06:10.219Z,100.00
2022-08-23T23:08:37.862Z,100.00
2022-08-23T23:11:07.419Z,100.00
2022-08-23T23:13:36.550Z,100.00
2022-08-23T23:16:06.614Z,100.00
2022-08-23T23:18:34.724Z,100.00
2022-08-23T23:21:02.543Z,100.00
2022-08-23T23:23:31.132Z,100.00
2022-08-23T23:25:59.207Z,100.00
2022-08-23T23:28:27.504Z,100.00
2022-08-23T23:30:57.730Z,100.00
2022-08-23T23:33:25.926Z,100.00
2022-08-23T23:35:53.560Z,100.00
2022-08-23T23:38:21.211Z,100.00
2022-08-23T23:40:48.802Z,100.00
2022-08-23T23:43:16.908Z,100.00
2022-08-23T23:45:44.652Z,100.00
2022-08-23T23:48:13.652Z,100.00
2022-08-23T23:50:45.312Z,100.00
2022-08-23T23:53:14.904Z,100.00
2022-08-23T23:55:42.559Z,100.00
2022-08-23T23:58:10.415Z,100.00
